createdAt,value
2018-07-07T00:00:36.223Z,71.10
2018-07-07T00:03:06.164Z,70.30
2018-07-07T00:05:35.367Z,70.40
2018-07-07T00:08:05.768Z,70.10
2018-07-07T00:10:34.734Z,69.90
2018-07-07T00:13:07.398Z,70.00
2018-07-07T00:15:36.688Z,69.90
2018-07-07T00:20:34.251Z,70.60
2018-07-07T00:23:03.398Z,70.30
2018-07-07T00:25:32.341Z,69.70
2018-07-07T00:28:01.240Z,70.30
2018-07-07T00:30:30.391Z,70.60
2018-07-07T00:32:59.796Z,70.60
2018-07-07T00:35:28.738Z,70.60
2018-07-07T00:38:03.058Z,69.80
2018-07-07T00:40:34.193Z,69.80
2018-07-07T00:43:03.462Z,70.30
2018-07-07T00:45:32.404Z,70.20
2018-07-07T00:48:01.284Z,71.60
2018-07-07T00:50:30.191Z,70.60
2018-07-07T00:52:59.083Z,71.50
2018-07-07T00:55:28.026Z,70.90
2018-07-07T00:57:56.891Z,71.70
2018-07-07T01:00:35.759Z,71.00
2018-07-07T01:03:05.003Z,70.20
2018-07-07T01:05:34.915Z,70.40
2018-07-07T01:08:03.782Z,70.40
2018-07-07T01:10:32.916Z,71.00
2018-07-07T01:13:01.896Z,71.00
2018-07-07T01:15:30.814Z,71.70
2018-07-07T01:17:59.864Z,70.80
2018-07-07T01:20:28.893Z,70.90
2018-07-07T01:22:57.790Z,71.80
2018-07-07T01:25:26.711Z,71.10
2018-07-07T01:27:55.622Z,70.40
2018-07-07T01:30:24.699Z,70.80
2018-07-07T01:32:53.600Z,70.60
2018-07-07T01:35:22.708Z,70.70
2018-07-07T01:40:20.186Z,70.20
2018-07-07T01:42:49.181Z,69.10
2018-07-07T01:45:18.057Z,69.20
2018-07-07T01:47:47.151Z,69.90
2018-07-07T01:52:44.403Z,68.70
2018-07-07T01:55:13.368Z,68.20
2018-07-07T01:57:42.321Z,66.50
2018-07-07T02:00:11.220Z,67.40
2018-07-07T02:02:40.104Z,66.70
2018-07-07T02:05:09.004Z,66.70
2018-07-07T02:07:38.314Z,66.20
2018-07-07T02:10:07.226Z,65.00
2018-07-07T02:12:36.232Z,64.30
2018-07-07T02:15:05.158Z,65.30
2018-07-07T02:17:34.069Z,64.90
2018-07-07T02:20:03.156Z,66.00
2018-07-07T02:22:32.050Z,63.70
2018-07-07T02:25:01.009Z,63.90
2018-07-07T02:27:29.908Z,63.30
2018-07-07T02:29:58.988Z,62.60
2018-07-07T02:32:28.884Z,64.20
2018-07-07T02:34:57.866Z,63.00
2018-07-07T02:37:26.824Z,62.20
2018-07-07T02:42:24.344Z,63.40
2018-07-07T02:44:53.373Z,63.70
2018-07-07T02:47:22.309Z,64.80
2018-07-07T02:49:51.328Z,63.40
2018-07-07T02:52:20.556Z,64.80
2018-07-07T02:54:49.508Z,64.80
2018-07-07T02:57:18.444Z,64.80
2018-07-07T02:59:47.463Z,64.40
2018-07-07T03:02:16.476Z,65.70
2018-07-07T03:04:45.436Z,63.40
2018-07-07T03:07:14.376Z,64.40
2018-07-07T03:09:43.293Z,63.90
2018-07-07T03:12:12.295Z,63.70
2018-07-07T03:14:41.233Z,65.10
2018-07-07T03:17:10.187Z,65.30
2018-07-07T03:19:39.050Z,64.40
2018-07-07T03:22:07.988Z,64.60
2018-07-07T03:24:36.907Z,64.40
2018-07-07T03:29:34.287Z,63.80
2018-07-07T03:32:03.470Z,64.20
2018-07-07T03:34:32.343Z,64.70
2018-07-07T03:37:01.288Z,65.50
2018-07-07T03:39:30.171Z,66.10
2018-07-07T03:41:59.057Z,65.50
2018-07-07T03:44:27.960Z,65.40
2018-07-07T03:46:56.953Z,67.10
2018-07-07T03:51:54.361Z,66.80
2018-07-07T03:54:23.278Z,66.90
2018-07-07T03:56:52.280Z,67.20
2018-07-07T03:59:21.127Z,66.40
2018-07-07T04:01:50.104Z,65.60
2018-07-07T04:04:19.016Z,65.90
2018-07-07T04:06:48.047Z,66.10
2018-07-07T04:09:16.960Z,67.30
2018-07-07T04:11:45.878Z,66.90
2018-07-07T04:14:14.780Z,66.70
2018-07-07T04:16:43.671Z,67.80
2018-07-07T04:19:12.551Z,66.70
2018-07-07T04:21:41.449Z,67.90
2018-07-07T04:26:38.808Z,66.00
2018-07-07T04:29:07.679Z,65.10
2018-07-07T04:31:36.668Z,64.90
2018-07-07T04:34:05.838Z,64.30
2018-07-07T04:36:35.064Z,63.30
2018-07-07T04:39:04.837Z,62.90
2018-07-07T04:41:33.736Z,63.10
2018-07-07T04:44:02.771Z,61.40
2018-07-07T04:46:31.687Z,61.50
2018-07-07T04:49:00.594Z,60.60
2018-07-07T04:51:29.533Z,61.30
2018-07-07T04:53:58.434Z,59.70
2018-07-07T04:56:27.339Z,61.00
2018-07-07T04:58:56.262Z,60.50
2018-07-07T05:01:25.141Z,59.60
2018-07-07T05:03:54.030Z,59.80
2018-07-07T05:06:23.003Z,58.80
2018-07-07T05:08:51.908Z,60.40
2018-07-07T05:11:20.868Z,60.70
2018-07-07T05:16:18.245Z,61.50
2018-07-07T05:18:47.238Z,59.90
2018-07-07T05:21:16.240Z,63.10
2018-07-07T05:23:45.132Z,61.70
2018-07-07T05:26:14.044Z,58.30
2018-07-07T05:28:42.939Z,60.00
2018-07-07T05:31:11.950Z,60.40
2018-07-07T05:33:40.897Z,59.30
2018-07-07T05:36:09.944Z,58.00
2018-07-07T05:38:38.916Z,59.30
2018-07-07T05:41:08.028Z,57.60
2018-07-07T05:43:36.920Z,57.20
2018-07-07T05:46:06.012Z,58.50
2018-07-07T05:48:34.899Z,56.70
2018-07-07T05:51:03.980Z,55.30
2018-07-07T05:53:32.932Z,55.10
2018-07-07T05:56:01.892Z,57.10
2018-07-07T05:58:30.872Z,55.30
2018-07-07T06:00:59.875Z,57.40
2018-07-07T06:03:28.775Z,55.40
2018-07-07T06:05:57.669Z,56.40
2018-07-07T06:08:26.849Z,58.30
2018-07-07T06:10:55.731Z,54.70
2018-07-07T06:13:24.657Z,54.80
2018-07-07T06:15:53.623Z,54.90
2018-07-07T06:18:22.661Z,54.10
2018-07-07T06:20:51.585Z,53.90
2018-07-07T06:23:20.467Z,54.30
2018-07-07T06:25:49.403Z,54.50
2018-07-07T06:28:18.276Z,55.20
2018-07-07T06:30:47.160Z,53.90
2018-07-07T06:33:16.035Z,54.30
2018-07-07T06:35:44.973Z,54.20
2018-07-07T06:38:13.893Z,53.80
2018-07-07T06:40:42.832Z,54.70
2018-07-07T06:43:11.879Z,54.80
2018-07-07T06:45:40.819Z,53.90
2018-07-07T06:48:09.724Z,54.90
2018-07-07T06:50:38.600Z,54.30
2018-07-07T06:53:07.650Z,54.30
2018-07-07T06:55:36.520Z,53.70
2018-07-07T06:58:05.485Z,55.40
2018-07-07T07:00:34.534Z,54.20
2018-07-07T07:03:03.498Z,54.20
2018-07-07T07:05:32.467Z,54.80
2018-07-07T07:08:01.323Z,55.10
2018-07-07T07:10:30.275Z,56.20
2018-07-07T07:12:59.291Z,55.50
2018-07-07T07:15:28.248Z,55.80
2018-07-07T07:17:57.135Z,54.50
2018-07-07T07:20:26.372Z,56.20
2018-07-07T07:22:55.289Z,54.80
2018-07-07T07:25:24.181Z,55.50
2018-07-07T07:30:23.587Z,56.20
2018-07-07T07:32:52.593Z,56.10
2018-07-07T07:35:21.419Z,54.80
2018-07-07T07:37:50.369Z,56.80
2018-07-07T07:40:19.264Z,55.40
2018-07-07T07:42:48.147Z,55.30
2018-07-07T07:45:17.245Z,56.30
2018-07-07T07:47:46.200Z,54.50
2018-07-07T07:50:15.159Z,54.20
2018-07-07T07:52:44.102Z,55.90
2018-07-07T07:55:13.091Z,56.50
2018-07-07T07:57:42.016Z,55.90
2018-07-07T08:00:10.955Z,55.60
2018-07-07T08:02:39.950Z,56.60
2018-07-07T08:05:08.929Z,55.80
2018-07-07T08:07:37.860Z,54.00
2018-07-07T08:10:06.832Z,54.50
2018-07-07T08:12:35.928Z,54.00
2018-07-07T08:15:04.914Z,55.60
2018-07-07T08:17:33.884Z,56.60
2018-07-07T08:20:02.840Z,56.00
2018-07-07T08:22:31.815Z,56.80
2018-07-07T08:25:00.638Z,54.10
2018-07-07T08:27:29.570Z,54.40
2018-07-07T08:32:27.360Z,54.50
2018-07-07T08:34:56.443Z,54.40
2018-07-07T08:37:25.414Z,55.20
2018-07-07T08:39:54.391Z,55.40
2018-07-07T08:42:23.372Z,55.60
2018-07-07T08:44:52.327Z,54.00
2018-07-07T08:47:21.256Z,55.00
2018-07-07T08:49:54.648Z,55.30
2018-07-07T08:52:24.260Z,53.30
2018-07-07T08:54:53.413Z,55.90
2018-07-07T08:57:22.363Z,55.50
2018-07-07T08:59:51.332Z,57.30
2018-07-07T09:02:20.238Z,54.50
2018-07-07T09:04:49.134Z,54.30
2018-07-07T09:07:18.024Z,54.00
2018-07-07T09:09:46.915Z,53.40
2018-07-07T09:12:16.400Z,54.60
2018-07-07T09:17:14.711Z,53.70
2018-07-07T09:19:44.685Z,53.60
2018-07-07T09:22:13.570Z,56.10
2018-07-07T09:24:42.442Z,54.90
2018-07-07T09:27:11.658Z,55.90
2018-07-07T09:29:40.961Z,54.30
2018-07-07T09:32:09.926Z,55.50
2018-07-07T09:34:38.813Z,54.10
2018-07-07T09:37:07.697Z,54.10
2018-07-07T09:39:37.947Z,55.30
2018-07-07T09:42:06.835Z,52.50
2018-07-07T09:44:37.540Z,52.90
2018-07-07T09:47:07.036Z,52.80
2018-07-07T09:49:37.391Z,54.40
2018-07-07T09:52:06.342Z,52.50
2018-07-07T09:54:35.294Z,53.90
2018-07-07T09:57:04.231Z,53.10
2018-07-07T09:59:33.103Z,53.40
2018-07-07T10:02:02.013Z,52.70
2018-07-07T10:04:31.246Z,54.60
2018-07-07T10:07:00.490Z,53.10
2018-07-07T10:09:31.363Z,53.50
2018-07-07T10:12:00.463Z,54.30
2018-07-07T10:14:29.504Z,55.40
2018-07-07T10:16:58.765Z,53.20
2018-07-07T10:19:27.809Z,51.80
2018-07-07T10:21:56.893Z,52.00
2018-07-07T10:24:25.833Z,53.40
2018-07-07T10:26:55.046Z,53.20
2018-07-07T10:29:24.042Z,52.40
2018-07-07T10:31:52.950Z,53.10
2018-07-07T10:34:21.819Z,51.70
2018-07-07T10:36:50.887Z,50.90
2018-07-07T10:39:19.773Z,52.10
2018-07-07T10:41:49.472Z,53.40
2018-07-07T10:44:19.377Z,51.90
2018-07-07T10:46:48.383Z,53.60
2018-07-07T10:49:18.032Z,52.40
2018-07-07T10:51:47.244Z,53.60
2018-07-07T10:54:16.207Z,52.80
2018-07-07T10:56:45.164Z,53.60
2018-07-07T10:59:14.173Z,54.60
2018-07-07T11:01:43.096Z,53.50
2018-07-07T11:04:12.083Z,52.50
2018-07-07T11:06:41.112Z,52.10
2018-07-07T11:09:10.013Z,52.60
2018-07-07T11:11:38.990Z,53.10
2018-07-07T11:14:07.954Z,54.90
2018-07-07T11:16:36.929Z,53.90
2018-07-07T11:19:06.418Z,53.00
2018-07-07T11:21:35.369Z,52.20
2018-07-07T11:24:04.495Z,52.50
2018-07-07T11:26:33.455Z,52.80
2018-07-07T11:29:02.505Z,52.80
2018-07-07T11:31:31.391Z,53.10
2018-07-07T11:34:00.280Z,54.10
2018-07-07T11:36:29.329Z,54.10
2018-07-07T11:38:58.172Z,55.30
2018-07-07T11:41:27.212Z,54.40
2018-07-07T11:43:56.100Z,53.60
2018-07-07T11:48:53.471Z,55.40
2018-07-07T11:51:22.355Z,53.80
2018-07-07T11:53:51.270Z,53.10
2018-07-07T11:58:49.101Z,54.00
2018-07-07T12:01:18.084Z,54.30
2018-07-07T12:03:47.203Z,53.40
2018-07-07T12:06:16.164Z,54.80
2018-07-07T12:08:45.316Z,54.40
2018-07-07T12:11:14.411Z,53.30
2018-07-07T12:13:43.247Z,53.70
2018-07-07T12:16:12.279Z,53.90
2018-07-07T12:18:41.507Z,53.10
2018-07-07T12:21:10.585Z,53.80
2018-07-07T12:23:39.525Z,54.10
2018-07-07T12:26:08.555Z,53.40
2018-07-07T12:31:06.076Z,53.60
2018-07-07T12:33:35.136Z,52.50
2018-07-07T12:36:04.298Z,52.60
2018-07-07T12:38:33.231Z,54.50
2018-07-07T12:41:02.625Z,53.80
2018-07-07T12:43:31.735Z,52.90
2018-07-07T12:46:00.907Z,52.60
2018-07-07T12:48:29.705Z,53.10
2018-07-07T12:50:58.688Z,53.00
2018-07-07T12:53:27.608Z,52.10
2018-07-07T12:55:56.685Z,52.20
2018-07-07T12:58:25.614Z,52.90
2018-07-07T13:00:54.557Z,52.60
2018-07-07T13:03:23.591Z,53.20
2018-07-07T13:05:52.687Z,52.50
2018-07-07T13:08:21.586Z,54.50
2018-07-07T13:10:50.511Z,53.30
2018-07-07T13:13:19.506Z,54.00
2018-07-07T13:15:48.597Z,53.10
2018-07-07T13:18:17.564Z,54.00
2018-07-07T13:20:47.021Z,52.90
2018-07-07T13:25:46.220Z,55.10
2018-07-07T13:28:15.524Z,53.20
2018-07-07T13:33:13.002Z,53.10
2018-07-07T13:35:41.971Z,52.60
2018-07-07T13:38:11.006Z,53.80
2018-07-07T13:40:39.953Z,52.30
2018-07-07T13:43:08.951Z,52.40
2018-07-07T13:45:38.304Z,52.40
2018-07-07T13:48:09.069Z,52.70
2018-07-07T13:50:45.485Z,53.60
2018-07-07T13:53:14.485Z,52.00
2018-07-07T13:55:43.597Z,52.90
2018-07-07T13:58:12.807Z,52.50
2018-07-07T14:00:42.343Z,53.30
2018-07-07T14:03:11.901Z,52.70
2018-07-07T14:05:41.031Z,52.90
2018-07-07T14:08:09.972Z,52.80
2018-07-07T14:10:38.996Z,53.00
2018-07-07T14:13:08.044Z,54.20
2018-07-07T14:15:37.008Z,53.00
2018-07-07T14:18:05.938Z,52.50
2018-07-07T14:20:34.957Z,52.30
2018-07-07T14:23:03.961Z,53.10
2018-07-07T14:25:32.926Z,52.50
2018-07-07T14:28:02.172Z,52.30
2018-07-07T14:30:31.150Z,52.50
2018-07-07T14:33:00.168Z,53.40
2018-07-07T14:35:29.106Z,53.20
2018-07-07T14:37:58.152Z,54.40
2018-07-07T14:40:27.036Z,52.90
2018-07-07T14:42:56.042Z,52.40
2018-07-07T14:45:25.106Z,52.40
2018-07-07T14:47:54.129Z,52.90
2018-07-07T14:50:23.072Z,53.80
2018-07-07T14:52:52.073Z,52.60
2018-07-07T14:55:24.324Z,52.50
2018-07-07T14:57:53.292Z,53.10
2018-07-07T15:00:22.194Z,52.70
2018-07-07T15:02:51.091Z,52.80
2018-07-07T15:05:20.041Z,52.70
2018-07-07T15:07:48.997Z,53.30
2018-07-07T15:10:18.207Z,52.90
2018-07-07T15:12:47.107Z,52.40
2018-07-07T15:15:16.027Z,52.40
2018-07-07T15:17:44.984Z,52.90
2018-07-07T15:20:15.098Z,52.90
2018-07-07T15:22:45.403Z,52.70
2018-07-07T15:25:14.198Z,52.10
2018-07-07T15:27:43.147Z,52.60
2018-07-07T15:30:12.252Z,52.40
2018-07-07T15:32:41.195Z,52.20
2018-07-07T15:37:38.671Z,52.10
2018-07-07T15:40:07.714Z,52.40
2018-07-07T15:42:36.655Z,52.70
2018-07-07T15:45:05.582Z,52.60
2018-07-07T15:47:34.512Z,52.70
2018-07-07T15:50:04.135Z,52.10
2018-07-07T15:52:33.105Z,52.90
2018-07-07T15:55:02.212Z,53.30
2018-07-07T15:57:31.031Z,53.00
2018-07-07T16:00:00.220Z,52.20
2018-07-07T16:02:29.107Z,52.30
2018-07-07T16:04:58.146Z,52.20
2018-07-07T16:07:27.077Z,52.30
2018-07-07T16:09:56.216Z,53.00
2018-07-07T16:12:25.005Z,53.60
2018-07-07T16:14:53.947Z,52.70
2018-07-07T16:17:22.807Z,52.80
2018-07-07T16:19:51.751Z,53.80
2018-07-07T16:22:20.689Z,53.50
2018-07-07T16:24:49.668Z,53.20
2018-07-07T16:27:18.692Z,53.60
2018-07-07T16:29:47.551Z,53.00
2018-07-07T16:32:16.460Z,52.70
2018-07-07T16:34:45.438Z,52.90
2018-07-07T16:37:14.434Z,53.70
2018-07-07T16:39:43.272Z,52.70
2018-07-07T16:42:12.528Z,53.20
2018-07-07T16:47:09.942Z,53.70
2018-07-07T16:49:39.239Z,53.00
2018-07-07T16:52:08.699Z,53.40
2018-07-07T16:54:39.481Z,52.70
2018-07-07T16:57:08.446Z,53.50
2018-07-07T16:59:37.657Z,53.90
2018-07-07T17:02:07.032Z,54.20
2018-07-07T17:09:33.741Z,54.40
2018-07-07T17:12:02.744Z,54.60
2018-07-07T17:14:31.752Z,55.30
2018-07-07T17:17:00.851Z,54.10
2018-07-07T17:19:29.872Z,55.10
2018-07-07T17:21:58.821Z,55.20
2018-07-07T17:24:29.156Z,53.70
2018-07-07T17:26:58.492Z,54.20
2018-07-07T17:29:27.975Z,54.50
2018-07-07T17:31:57.042Z,54.20
2018-07-07T17:34:26.118Z,55.30
2018-07-07T17:36:55.850Z,54.30
2018-07-07T17:41:53.565Z,54.40
2018-07-07T17:44:22.618Z,54.60
2018-07-07T17:46:51.604Z,54.60
2018-07-07T17:49:20.862Z,54.20
2018-07-07T17:51:50.180Z,54.60
2018-07-07T17:54:19.900Z,54.30
2018-07-07T17:56:48.930Z,55.00
2018-07-07T17:59:17.934Z,55.70
2018-07-07T18:01:47.205Z,55.00
2018-07-07T18:04:16.185Z,54.90
2018-07-07T18:06:45.131Z,54.80
2018-07-07T18:11:42.662Z,55.40
2018-07-07T18:14:11.446Z,55.00
2018-07-07T18:16:40.428Z,56.10
2018-07-07T18:19:09.621Z,56.50
2018-07-07T18:21:38.510Z,57.00
2018-07-07T18:24:07.530Z,55.00
2018-07-07T18:26:36.452Z,54.50
2018-07-07T18:31:34.004Z,54.80
2018-07-07T18:34:02.928Z,55.00
2018-07-07T18:36:31.833Z,57.50
2018-07-07T18:39:00.875Z,55.30
2018-07-07T18:41:29.771Z,56.00
2018-07-07T18:43:58.664Z,57.20
2018-07-07T18:46:27.661Z,56.90
2018-07-07T18:48:56.593Z,56.50
2018-07-07T18:51:25.463Z,56.80
2018-07-07T18:53:54.635Z,55.70
2018-07-07T18:56:23.563Z,56.10
2018-07-07T18:58:52.423Z,55.60
2018-07-07T19:01:21.391Z,57.30
2018-07-07T19:03:50.259Z,56.40
2018-07-07T19:06:19.275Z,57.10
2018-07-07T19:08:48.197Z,58.60
2018-07-07T19:11:17.188Z,57.00
2018-07-07T19:13:46.160Z,54.60
2018-07-07T19:16:15.338Z,55.80
2018-07-07T19:18:44.333Z,56.10
2018-07-07T19:21:13.197Z,56.40
2018-07-07T19:23:42.313Z,55.70
2018-07-07T19:26:11.371Z,54.90
2018-07-07T19:28:40.257Z,55.60
2018-07-07T19:31:09.231Z,57.00
2018-07-07T19:33:38.265Z,55.60
2018-07-07T19:36:07.208Z,56.80
2018-07-07T19:41:04.811Z,58.70
2018-07-07T19:43:33.723Z,56.60
2018-07-07T19:46:02.801Z,56.90
2018-07-07T19:48:31.767Z,57.90
2018-07-07T19:51:00.803Z,59.30
2018-07-07T19:53:29.841Z,57.20
2018-07-07T19:55:58.961Z,58.30
2018-07-07T19:58:28.898Z,58.00
2018-07-07T20:00:57.918Z,59.00
2018-07-07T20:03:27.013Z,58.40
2018-07-07T20:05:56.045Z,59.20
2018-07-07T20:08:25.104Z,59.60
2018-07-07T20:10:54.141Z,59.20
2018-07-07T20:13:23.181Z,59.20
2018-07-07T20:16:11.924Z,58.20
2018-07-07T20:19:09.032Z,58.80
2018-07-07T20:21:47.056Z,57.70
2018-07-07T20:24:17.813Z,59.00
2018-07-07T20:26:46.763Z,58.90
2018-07-07T20:29:15.841Z,58.80
2018-07-07T20:31:44.827Z,58.50
2018-07-07T20:34:14.109Z,58.20
2018-07-07T20:36:43.071Z,58.70
2018-07-07T20:39:12.124Z,58.10
2018-07-07T20:41:41.075Z,59.30
2018-07-07T20:44:09.978Z,58.50
2018-07-07T20:46:39.053Z,58.40
2018-07-07T20:49:08.101Z,58.10
2018-07-07T20:51:37.102Z,58.80
2018-07-07T20:54:06.127Z,60.60
2018-07-07T20:56:35.136Z,59.40
2018-07-07T20:59:04.133Z,59.80
2018-07-07T21:01:33.339Z,58.90
2018-07-07T21:06:30.965Z,58.20
2018-07-07T21:09:00.263Z,59.50
2018-07-07T21:11:29.267Z,59.60
2018-07-07T21:13:58.196Z,58.80
2018-07-07T21:18:55.545Z,58.20
2018-07-07T21:21:24.710Z,60.60
2018-07-07T21:23:54.095Z,61.80
2018-07-07T21:26:23.137Z,60.80
2018-07-07T21:28:52.095Z,59.80
2018-07-07T21:31:21.058Z,60.50
2018-07-07T21:33:50.144Z,60.50
2018-07-07T21:36:19.074Z,59.60
2018-07-07T21:38:48.035Z,60.20
2018-07-07T21:41:16.964Z,59.10
2018-07-07T21:43:46.012Z,59.80
2018-07-07T21:46:14.967Z,60.70
2018-07-07T21:48:43.868Z,61.80
2018-07-07T21:51:12.822Z,62.60
2018-07-07T21:53:41.730Z,62.40
2018-07-07T21:56:10.677Z,61.80
2018-07-07T21:58:39.685Z,63.10
2018-07-07T22:01:16.703Z,62.20
2018-07-07T22:03:45.628Z,61.80
2018-07-07T22:06:14.604Z,61.60
2018-07-07T22:11:11.923Z,62.50
2018-07-07T22:13:40.873Z,64.00
2018-07-07T22:16:09.803Z,62.80
2018-07-07T22:18:38.820Z,62.90
2018-07-07T22:21:19.177Z,63.30
2018-07-07T22:23:48.218Z,63.40
2018-07-07T22:26:17.113Z,64.50
2018-07-07T22:28:46.051Z,64.00
2018-07-07T22:31:14.992Z,64.50
2018-07-07T22:33:43.887Z,63.20
2018-07-07T22:36:12.821Z,64.20
2018-07-07T22:38:41.752Z,63.70
2018-07-07T22:41:10.641Z,64.20
2018-07-07T22:43:39.471Z,63.60
2018-07-07T22:46:08.348Z,64.20
2018-07-07T22:48:37.262Z,64.50
2018-07-07T22:51:06.248Z,64.60
2018-07-07T22:53:35.146Z,65.40
2018-07-07T22:56:04.126Z,65.10
2018-07-07T22:58:33.189Z,66.50
2018-07-07T23:01:02.122Z,65.80
2018-07-07T23:03:31.022Z,66.50
2018-07-07T23:06:00.057Z,67.20
2018-07-07T23:08:28.910Z,66.90
2018-07-07T23:10:58.064Z,67.20
2018-07-07T23:13:27.072Z,67.10
2018-07-07T23:15:56.280Z,67.50
2018-07-07T23:18:25.120Z,67.80
2018-07-07T23:20:54.019Z,67.70
2018-07-07T23:23:23.027Z,68.20
2018-07-07T23:25:51.907Z,68.70
2018-07-07T23:28:20.791Z,68.80
2018-07-07T23:30:49.653Z,68.70
2018-07-07T23:33:18.581Z,68.70
2018-07-07T23:35:47.483Z,70.00
2018-07-07T23:38:16.443Z,68.60
2018-07-07T23:40:45.345Z,69.20
2018-07-07T23:43:14.865Z,69.90
2018-07-07T23:45:43.771Z,69.80
2018-07-07T23:48:12.670Z,70.30
2018-07-07T23:53:10.088Z,71.60
2018-07-07T23:55:38.977Z,70.70
2018-07-07T23:58:07.931Z,70.90
